Prosser Lakeview, California
Current Conditions -  °F | °C
As of 5:55 AM on Saturday 25 Oct 2014 (Local Time) from KTRK Reporting Station
Clear Clear  
Wind Chill: 50°   Ceiling: Unl
Heat Index: 50°   Visibility: 10mi
Dew Point: 27°   Wind: 22mph
Humidity: 40%   Direction: 210°SSW
Pressure: 29.98"   Gusts: 39mph
Location:  39.3569°N, 120.175°W
Report Text: KTRK 251255Z AUTO 21019G34KT 10SM CLR 10/M03 A2998 RMK AO2
Loading
Personal Weather Stations






























Interactive Weather Map New forecast layout! Learn more

10-Day Weather Forecast

Advertisements
Track Severe Weather on mobile